createdAt,value
2019-05-13T00:01:19.216Z,952.75
2019-05-13T00:03:45.521Z,952.76
2019-05-13T00:06:13.429Z,952.79
2019-05-13T00:08:38.197Z,952.73
2019-05-13T00:11:04.755Z,952.67
2019-05-13T00:13:31.047Z,952.74
2019-05-13T00:15:57.384Z,952.77
2019-05-13T00:18:23.709Z,952.78
2019-05-13T00:20:50.018Z,952.80
2019-05-13T00:23:16.343Z,952.78
2019-05-13T00:25:44.427Z,952.78
2019-05-13T00:28:08.975Z,952.69
2019-05-13T00:30:35.294Z,952.72
2019-05-13T00:33:03.802Z,952.81
2019-05-13T00:35:27.927Z,952.79
2019-05-13T00:37:54.375Z,952.79
2019-05-13T00:40:20.536Z,952.76
2019-05-13T00:42:46.864Z,952.71
2019-05-13T00:45:14.522Z,952.71
2019-05-13T00:47:39.504Z,952.67
2019-05-13T00:50:05.813Z,952.67
2019-05-13T00:52:33.913Z,952.77
2019-05-13T00:54:58.468Z,952.71
2019-05-13T00:57:24.780Z,952.76
2019-05-13T00:59:51.107Z,952.77
2019-05-13T01:02:17.407Z,952.83
2019-05-13T01:04:44.202Z,952.83
2019-05-13T01:07:24.418Z,952.72
2019-05-13T01:09:36.357Z,952.76
2019-05-13T01:12:04.319Z,952.75
2019-05-13T01:14:29.002Z,952.77
2019-05-13T01:16:55.331Z,952.85
2019-05-13T01:19:23.541Z,952.80
2019-05-13T01:21:47.964Z,952.81
2019-05-13T01:24:14.645Z,952.81
2019-05-13T01:26:40.607Z,952.77
2019-05-13T01:29:06.938Z,952.79
2019-05-13T01:31:34.409Z,952.77
2019-05-13T01:33:59.572Z,952.81
2019-05-13T01:36:25.917Z,952.74
2019-05-13T01:38:54.103Z,952.76
2019-05-13T01:41:18.535Z,952.72
2019-05-13T01:43:44.839Z,952.74
2019-05-13T01:46:13.333Z,952.84
2019-05-13T01:48:37.468Z,952.80
2019-05-13T01:51:04.048Z,952.81
2019-05-13T01:53:30.114Z,952.84
2019-05-13T01:55:56.464Z,952.83
2019-05-13T01:58:23.547Z,952.80
2019-05-13T02:00:51.639Z,952.74
2019-05-13T02:03:15.417Z,952.73
2019-05-13T02:05:43.921Z,952.78
2019-05-13T02:08:08.047Z,952.78
2019-05-13T02:10:34.367Z,952.74
2019-05-13T02:13:00.696Z,952.77
2019-05-13T02:15:27.006Z,952.80
2019-05-13T02:17:53.780Z,952.78
2019-05-13T02:20:19.649Z,952.72
2019-05-13T02:22:45.952Z,952.73
2019-05-13T02:25:13.798Z,952.73
2019-05-13T02:27:38.732Z,952.82
2019-05-13T02:30:05.864Z,952.89
2019-05-13T02:32:32.878Z,952.91
2019-05-13T02:34:57.681Z,952.99
2019-05-13T02:37:23.989Z,952.96
2019-05-13T02:39:52.926Z,952.93
2019-05-13T02:42:16.615Z,952.87
2019-05-13T02:44:43.732Z,952.93
2019-05-13T02:47:12.124Z,952.86
2019-05-13T02:49:35.590Z,952.92
2019-05-13T02:52:02.848Z,952.88
2019-05-13T02:54:28.269Z,952.91
2019-05-13T02:56:54.552Z,952.96
2019-05-13T02:59:22.697Z,953.04
2019-05-13T03:01:47.264Z,953.10
2019-05-13T03:04:13.571Z,953.14
2019-05-13T03:06:43.260Z,953.24
2019-05-13T03:09:06.196Z,953.16
2019-05-13T03:11:33.338Z,953.20
2019-05-13T03:13:58.836Z,953.23
2019-05-13T03:16:25.146Z,953.28
2019-05-13T03:18:52.380Z,953.28
2019-05-13T03:21:17.775Z,953.25
2019-05-13T03:23:44.610Z,953.35
2019-05-13T03:26:13.077Z,953.35
2019-05-13T03:28:36.766Z,953.33
2019-05-13T03:31:06.307Z,953.38
2019-05-13T03:33:29.422Z,953.33
2019-05-13T03:35:56.783Z,953.44
2019-05-13T03:38:22.616Z,953.44
2019-05-13T03:40:48.372Z,953.44
2019-05-13T03:43:14.673Z,953.51
2019-05-13T03:45:43.319Z,953.47
2019-05-13T03:48:07.317Z,953.47
2019-05-13T03:50:34.613Z,953.49
2019-05-13T03:53:03.042Z,953.48
2019-05-13T03:55:26.269Z,953.48
2019-05-13T03:57:53.414Z,953.50
2019-05-13T04:00:18.904Z,953.48
2019-05-13T04:02:45.203Z,953.52
2019-05-13T04:05:13.460Z,953.52
2019-05-13T04:07:37.839Z,953.47
2019-05-13T04:10:04.170Z,953.50
2019-05-13T04:12:33.324Z,953.54
2019-05-13T04:14:56.792Z,953.47
2019-05-13T04:17:24.253Z,953.50
2019-05-13T04:19:52.776Z,953.57
2019-05-13T04:22:15.752Z,953.61
2019-05-13T04:24:42.854Z,953.64
2019-05-13T04:27:08.387Z,953.55
2019-05-13T04:29:34.693Z,953.70
2019-05-13T04:32:02.266Z,953.72
2019-05-13T04:34:27.342Z,953.60
2019-05-13T04:36:53.649Z,953.63
2019-05-13T04:39:36.732Z,953.69
2019-05-13T04:41:46.315Z,953.64
2019-05-13T04:44:13.237Z,953.71
2019-05-13T04:46:38.949Z,953.69
2019-05-13T04:49:05.280Z,953.76
2019-05-13T04:51:32.943Z,953.60
2019-05-13T04:53:57.895Z,953.56
2019-05-13T04:56:24.228Z,953.49
2019-05-13T04:58:52.814Z,953.61
2019-05-13T05:01:16.865Z,953.51
2019-05-13T05:03:46.155Z,953.51
2019-05-13T05:06:12.038Z,953.63
2019-05-13T05:08:35.866Z,953.68
2019-05-13T05:11:02.638Z,953.62
2019-05-13T05:13:28.481Z,953.52
2019-05-13T05:15:54.952Z,953.44
2019-05-13T05:18:22.161Z,953.46
2019-05-13T05:20:47.583Z,953.41
2019-05-13T05:23:13.929Z,953.35
2019-05-13T05:25:41.664Z,953.40
2019-05-13T05:28:06.529Z,953.42
2019-05-13T05:30:32.865Z,953.59
2019-05-13T05:32:59.246Z,953.63
2019-05-13T05:35:25.554Z,953.62
2019-05-13T05:37:52.301Z,953.76
2019-05-13T05:40:31.043Z,953.70
2019-05-13T05:42:44.517Z,953.86
2019-05-13T05:45:11.591Z,953.84
2019-05-13T05:47:37.160Z,953.79
2019-05-13T05:50:03.494Z,953.78
2019-05-13T05:52:31.623Z,953.65
2019-05-13T05:54:56.149Z,953.81
2019-05-13T05:57:22.709Z,953.92
2019-05-13T05:59:51.072Z,953.85
2019-05-13T06:02:15.355Z,953.75
2019-05-13T06:04:43.208Z,953.69
2019-05-13T06:07:07.989Z,953.59
2019-05-13T06:09:34.294Z,953.56
2019-05-13T06:12:01.663Z,953.59
2019-05-13T06:14:26.936Z,953.68
2019-05-13T06:16:53.244Z,953.91
2019-05-13T06:19:19.579Z,954.02
2019-05-13T06:21:45.899Z,953.90
2019-05-13T06:24:12.208Z,953.81
2019-05-13T06:26:38.538Z,953.93
2019-05-13T06:29:04.849Z,953.80
2019-05-13T06:31:32.259Z,953.75
2019-05-13T06:33:57.475Z,953.74
2019-05-13T06:36:23.799Z,953.91
2019-05-13T06:38:51.300Z,953.79
2019-05-13T06:41:16.438Z,953.77
2019-05-13T06:43:42.764Z,953.94
2019-05-13T06:46:09.068Z,953.80
2019-05-13T06:48:35.411Z,953.87
2019-05-13T06:51:02.603Z,953.99
2019-05-13T06:53:28.032Z,953.90
2019-05-13T06:55:54.367Z,953.96
2019-05-13T06:58:22.238Z,954.03
2019-05-13T07:00:46.995Z,954.05
2019-05-13T07:03:13.301Z,954.10
2019-05-13T07:05:42.172Z,953.98
2019-05-13T07:08:06.048Z,953.95
2019-05-13T07:10:32.381Z,954.12
2019-05-13T07:12:58.710Z,954.03
2019-05-13T07:15:25.028Z,954.10
2019-05-13T07:17:52.087Z,953.98
2019-05-13T07:20:17.676Z,953.99
2019-05-13T07:22:44.005Z,953.96
2019-05-13T07:25:11.470Z,954.10
2019-05-13T07:27:36.648Z,954.26
2019-05-13T07:30:02.965Z,954.05
2019-05-13T07:32:31.510Z,954.14
2019-05-13T07:34:55.609Z,954.11
2019-05-13T07:37:22.069Z,954.15
2019-05-13T07:39:48.226Z,954.17
2019-05-13T07:52:34.452Z,954.07
2019-05-13T07:55:01.666Z,954.26
2019-05-13T07:57:27.114Z,954.15
2019-05-13T07:59:53.424Z,954.33
2019-05-13T08:02:21.725Z,954.21
2019-05-13T08:04:49.198Z,954.11
2019-05-13T08:07:12.412Z,954.28
2019-05-13T08:09:38.716Z,954.14
2019-05-13T08:14:43.220Z,954.33
2019-05-13T08:17:06.623Z,954.27
2019-05-13T08:19:33.008Z,954.36
2019-05-13T08:22:01.829Z,954.55
2019-05-13T08:24:25.603Z,954.21
2019-05-13T08:26:53.053Z,954.55
2019-05-13T08:29:18.251Z,954.48
2019-05-13T08:31:44.595Z,954.30
2019-05-13T08:36:46.159Z,954.35
2019-05-13T08:39:12.938Z,954.47
2019-05-13T08:41:38.860Z,954.47
2019-05-13T08:44:05.174Z,954.59
2019-05-13T08:46:32.275Z,954.49
2019-05-13T08:48:57.817Z,954.57
2019-05-13T08:51:24.149Z,954.36
2019-05-13T08:53:51.700Z,954.59
2019-05-13T08:56:16.781Z,954.36
2019-05-13T08:58:43.081Z,954.43
2019-05-13T09:01:09.389Z,954.33
2019-05-13T09:03:35.721Z,954.10
2019-05-13T09:06:02.825Z,954.07
2019-05-13T09:08:28.396Z,954.14
2019-05-13T09:10:56.975Z,954.15
2019-05-13T09:13:22.371Z,954.25
2019-05-13T09:15:47.347Z,954.09
2019-05-13T09:18:13.659Z,954.07
2019-05-13T09:20:41.573Z,954.27
2019-05-13T09:23:06.399Z,954.38
2019-05-13T09:25:32.706Z,954.31
2019-05-13T09:27:59.055Z,954.16
2019-05-13T09:30:27.370Z,954.21
2019-05-13T09:32:51.688Z,954.12
2019-05-13T09:35:17.999Z,954.13
2019-05-13T09:37:44.331Z,954.11
2019-05-13T09:40:11.469Z,953.99
2019-05-13T09:42:48.093Z,954.07
2019-05-13T09:45:03.292Z,954.21
2019-05-13T09:47:32.014Z,954.43
2019-05-13T09:49:55.926Z,954.36
2019-05-13T09:52:22.667Z,954.30
2019-05-13T09:54:48.572Z,954.12
2019-05-13T09:57:14.870Z,954.03
2019-05-13T09:59:42.186Z,953.96
2019-05-13T10:02:07.515Z,953.89
2019-05-13T10:04:33.826Z,953.97
2019-05-13T10:07:02.285Z,953.92
2019-05-13T10:09:26.473Z,954.00
2019-05-13T10:11:52.802Z,954.20
2019-05-13T10:14:19.113Z,954.52
2019-05-13T10:16:45.434Z,954.28
2019-05-13T10:19:12.730Z,954.41
2019-05-13T10:21:38.071Z,954.43
2019-05-13T10:24:04.395Z,954.39
2019-05-13T10:26:32.059Z,954.38
2019-05-13T10:28:57.019Z,954.32
2019-05-13T10:31:23.365Z,954.50
2019-05-13T10:33:51.329Z,954.11
2019-05-13T10:36:16.025Z,954.54
2019-05-13T10:38:42.358Z,954.20
2019-05-13T10:41:08.666Z,954.21
2019-05-13T10:43:40.223Z,954.24
2019-05-13T10:46:02.639Z,954.41
2019-05-13T10:48:27.626Z,954.30
2019-05-13T10:50:53.936Z,954.24
2019-05-13T10:53:22.063Z,954.10
2019-05-13T10:55:46.593Z,954.07
2019-05-13T10:58:12.884Z,954.09
2019-05-13T11:00:39.215Z,953.93
2019-05-13T11:03:05.537Z,954.17
2019-05-13T11:05:32.778Z,954.23
2019-05-13T11:07:58.183Z,954.13
2019-05-13T11:10:24.490Z,954.43
2019-05-13T11:12:52.039Z,954.12
2019-05-13T11:15:17.119Z,954.06
2019-05-13T11:17:43.449Z,954.20
2019-05-13T11:20:12.276Z,954.27
2019-05-13T11:22:36.084Z,954.23
2019-05-13T11:25:02.693Z,954.13
2019-05-13T11:27:28.740Z,954.23
2019-05-13T11:29:55.135Z,954.07
2019-05-13T11:32:22.263Z,954.01
2019-05-13T11:34:47.774Z,954.17
2019-05-13T11:37:14.104Z,954.12
2019-05-13T11:39:42.809Z,954.13
2019-05-13T11:42:06.744Z,954.08
2019-05-13T11:44:33.057Z,954.10
2019-05-13T11:46:59.517Z,954.38
2019-05-13T11:49:31.416Z,954.18
2019-05-13T11:51:54.997Z,954.07
2019-05-13T11:54:22.354Z,954.12
2019-05-13T11:56:50.518Z,954.01
2019-05-13T11:59:14.409Z,954.03
2019-05-13T12:01:42.598Z,954.18
2019-05-13T12:04:06.676Z,954.05
2019-05-13T12:06:33.780Z,954.04
2019-05-13T12:09:02.780Z,954.10
2019-05-13T12:11:25.676Z,954.13
2019-05-13T12:13:52.796Z,954.21
2019-05-13T12:16:22.938Z,953.99
2019-05-13T12:18:51.210Z,954.05
2019-05-13T12:21:15.524Z,954.16
2019-05-13T12:23:42.829Z,954.06
2019-05-13T12:26:08.075Z,953.92
2019-05-13T12:28:34.386Z,954.12
2019-05-13T12:31:03.199Z,954.05
2019-05-13T12:33:27.263Z,953.93
2019-05-13T12:35:53.940Z,953.84
2019-05-13T12:38:21.995Z,953.95
2019-05-13T12:40:46.219Z,953.96
2019-05-13T12:43:13.339Z,953.92
2019-05-13T12:45:38.878Z,953.80
2019-05-13T12:48:05.178Z,953.81
2019-05-13T12:50:32.881Z,953.71
2019-05-13T12:52:57.836Z,953.81
2019-05-13T12:55:24.147Z,953.71
2019-05-13T12:57:52.637Z,953.83
2019-05-13T13:00:16.778Z,953.85
2019-05-13T13:02:49.999Z,953.85
2019-05-13T13:05:15.746Z,953.72
2019-05-13T13:07:41.257Z,953.73
2019-05-13T13:10:02.112Z,953.81
2019-05-13T13:12:34.748Z,953.67
2019-05-13T13:14:54.828Z,953.79
2019-05-13T13:17:24.124Z,953.50
2019-05-13T13:19:47.861Z,953.32
2019-05-13T13:22:14.308Z,953.42
2019-05-13T13:24:48.353Z,953.59
2019-05-13T13:27:14.800Z,953.34
2019-05-13T13:29:34.217Z,953.36
2019-05-13T13:32:02.719Z,953.44
2019-05-13T13:34:26.454Z,953.47
2019-05-13T13:36:52.817Z,953.47
2019-05-13T13:39:18.503Z,953.52
2019-05-13T13:41:44.777Z,953.51
2019-05-13T13:44:12.421Z,953.50
2019-05-13T13:46:44.679Z,953.66
2019-05-13T13:49:03.812Z,953.52
2019-05-13T13:51:34.027Z,953.34
2019-05-13T13:53:56.858Z,953.37
2019-05-13T13:56:25.282Z,953.42
2019-05-13T13:58:49.112Z,953.44
2019-05-13T14:01:20.105Z,953.38
2019-05-13T14:03:46.124Z,953.29
2019-05-13T14:06:08.090Z,953.25
2019-05-13T14:08:34.405Z,953.39
2019-05-13T14:11:02.080Z,953.37
2019-05-13T14:13:27.064Z,953.32
2019-05-13T14:15:53.364Z,953.42
2019-05-13T14:18:25.751Z,953.19
2019-05-13T14:20:46.022Z,953.04
2019-05-13T14:23:12.730Z,953.02
2019-05-13T14:25:38.669Z,953.21
2019-05-13T14:28:04.965Z,953.29
2019-05-13T14:30:31.400Z,953.13
2019-05-13T14:32:57.698Z,953.32
2019-05-13T14:35:23.985Z,953.18
2019-05-13T14:37:51.906Z,953.19
2019-05-13T14:40:16.679Z,953.17
2019-05-13T14:42:42.993Z,953.14
2019-05-13T14:45:09.296Z,952.95
2019-05-13T14:47:35.634Z,952.94
2019-05-13T14:50:02.251Z,953.08
2019-05-13T14:52:28.238Z,952.87
2019-05-13T14:54:54.567Z,952.94
2019-05-13T14:57:21.873Z,953.14
2019-05-13T14:59:47.196Z,953.00
2019-05-13T15:02:13.498Z,952.99
2019-05-13T15:04:41.995Z,952.93
2019-05-13T15:07:06.145Z,952.73
2019-05-13T15:09:32.473Z,952.84
2019-05-13T15:12:01.781Z,952.82
2019-05-13T15:14:25.119Z,952.88
2019-05-13T15:17:02.258Z,952.84
2019-05-13T15:19:17.753Z,952.84
2019-05-13T15:21:44.101Z,952.75
2019-05-13T15:24:12.409Z,952.96
2019-05-13T15:26:36.736Z,952.85
2019-05-13T15:29:05.054Z,952.76
2019-05-13T15:31:31.434Z,952.65
2019-05-13T15:33:55.693Z,952.62
2019-05-13T15:36:22.717Z,952.70
2019-05-13T15:38:48.344Z,952.63
2019-05-13T15:41:15.739Z,952.72
2019-05-13T15:43:42.152Z,952.63
2019-05-13T15:46:07.325Z,952.82
2019-05-13T15:48:33.651Z,952.63
2019-05-13T15:51:02.045Z,952.80
2019-05-13T15:53:26.288Z,952.87
2019-05-13T15:55:52.595Z,952.88
2019-05-13T15:58:18.941Z,952.76
2019-05-13T16:00:45.249Z,953.03
2019-05-13T16:03:12.247Z,952.78
2019-05-13T16:05:37.948Z,952.79
2019-05-13T16:08:04.275Z,952.72
2019-05-13T16:10:30.611Z,952.72
2019-05-13T16:12:56.918Z,952.76
2019-05-13T16:15:23.256Z,952.67
2019-05-13T16:17:51.939Z,952.81
2019-05-13T16:20:15.874Z,952.76
2019-05-13T16:22:42.234Z,952.80
2019-05-13T16:25:08.555Z,952.86
2019-05-13T16:27:34.865Z,952.83
2019-05-13T16:30:02.511Z,952.97
2019-05-13T16:32:27.493Z,952.77
2019-05-13T16:34:53.838Z,952.76
2019-05-13T16:37:21.967Z,952.75
2019-05-13T16:39:46.538Z,952.74
2019-05-13T16:42:12.872Z,952.95
2019-05-13T16:44:39.176Z,952.96
2019-05-13T16:47:05.486Z,952.80
2019-05-13T16:49:32.003Z,952.79
2019-05-13T16:51:58.133Z,953.05
2019-05-13T16:54:24.458Z,952.78
2019-05-13T16:56:51.812Z,952.84
2019-05-13T16:59:17.128Z,952.84
2019-05-13T17:01:43.437Z,952.91
2019-05-13T17:04:12.350Z,952.84
2019-05-13T17:06:36.354Z,952.94
2019-05-13T17:09:03.283Z,952.92
2019-05-13T17:11:29.612Z,952.93
2019-05-13T17:13:55.918Z,952.90
2019-05-13T17:16:22.246Z,952.87
2019-05-13T17:18:48.557Z,952.82
2019-05-13T17:21:14.886Z,952.88
2019-05-13T17:23:41.861Z,952.87
2019-05-13T17:26:07.521Z,952.95
2019-05-13T17:28:34.389Z,952.94
2019-05-13T17:31:02.183Z,952.91
2019-05-13T17:33:26.550Z,952.86
2019-05-13T17:35:52.918Z,952.93
2019-05-13T17:38:19.248Z,952.92
2019-05-13T17:40:50.117Z,953.00
2019-05-13T17:43:15.029Z,952.91
2019-05-13T17:45:41.736Z,952.95
2019-05-13T17:48:07.640Z,953.00
2019-05-13T17:50:33.972Z,952.81
2019-05-13T17:53:02.070Z,952.75
2019-05-13T17:55:26.611Z,952.67
2019-05-13T17:57:53.833Z,952.69
2019-05-13T18:00:21.602Z,952.76
2019-05-13T18:02:46.464Z,952.77
2019-05-13T18:05:12.797Z,952.92
2019-05-13T18:07:39.264Z,952.88
2019-05-13T18:10:05.727Z,952.85
2019-05-13T18:12:32.047Z,952.91
2019-05-13T18:14:58.359Z,952.91
2019-05-13T18:17:24.663Z,952.95
2019-05-13T18:19:51.466Z,952.88
2019-05-13T18:22:17.310Z,952.87
2019-05-13T18:24:43.678Z,952.82
2019-05-13T18:27:12.097Z,952.82
2019-05-13T18:29:36.340Z,952.75
2019-05-13T18:32:02.671Z,952.78
2019-05-13T18:34:28.979Z,952.80
2019-05-13T18:36:57.714Z,952.85
2019-05-13T18:39:21.735Z,952.90
2019-05-13T18:41:47.951Z,952.90
2019-05-13T18:44:14.257Z,952.92
2019-05-13T18:46:41.713Z,952.87
2019-05-13T18:49:06.919Z,952.85
2019-05-13T18:51:33.221Z,952.91
2019-05-13T18:54:01.270Z,952.79
2019-05-13T18:56:25.890Z,952.86
2019-05-13T18:58:52.233Z,953.03
2019-05-13T19:01:18.543Z,952.87
2019-05-13T19:03:45.071Z,952.85
2019-05-13T19:06:11.784Z,953.02
2019-05-13T19:08:38.058Z,952.94
2019-05-13T19:11:04.389Z,953.00
2019-05-13T19:13:32.485Z,953.09
2019-05-13T19:15:57.032Z,953.03
2019-05-13T19:18:23.332Z,953.09
2019-05-13T19:20:51.303Z,953.03
2019-05-13T19:23:15.980Z,953.01
2019-05-13T19:25:42.873Z,953.07
2019-05-13T19:28:08.662Z,953.02
2019-05-13T19:30:34.964Z,953.04
2019-05-13T19:33:01.477Z,953.03
2019-05-13T19:35:27.636Z,953.05
2019-05-13T19:37:53.941Z,953.09
2019-05-13T19:40:22.018Z,953.05
2019-05-13T19:42:46.613Z,953.05
2019-05-13T19:45:12.956Z,953.09
2019-05-13T19:47:41.580Z,953.30
2019-05-13T19:50:05.594Z,953.09
2019-05-13T19:52:32.110Z,953.26
2019-05-13T19:54:58.247Z,953.13
2019-05-13T19:57:24.589Z,953.03
2019-05-13T19:59:50.901Z,952.96
2019-05-13T20:02:17.260Z,953.05
2019-05-13T20:04:43.614Z,953.09
2019-05-13T20:07:11.840Z,952.94
2019-05-13T20:09:36.484Z,953.12
2019-05-13T20:12:02.676Z,953.11
2019-05-13T20:14:29.001Z,953.02
2019-05-13T20:16:55.314Z,952.95
2019-05-13T20:19:22.315Z,952.93
2019-05-13T20:21:47.984Z,952.95
2019-05-13T20:24:14.291Z,953.26
2019-05-13T20:26:41.402Z,953.12
2019-05-13T20:29:09.437Z,953.10
2019-05-13T20:31:33.264Z,953.13
2019-05-13T20:34:01.547Z,953.06
2019-05-13T20:36:25.900Z,952.97
2019-05-13T20:38:52.209Z,953.03
2019-05-13T20:41:18.558Z,952.97
2019-05-13T20:43:44.885Z,953.04
2019-05-13T20:46:11.359Z,953.17
2019-05-13T20:48:37.605Z,952.98
2019-05-13T20:51:03.976Z,953.06
2019-05-13T20:53:31.102Z,952.95
2019-05-13T20:55:56.639Z,953.00
2019-05-13T20:58:22.932Z,952.93
2019-05-13T21:00:51.480Z,953.01
2019-05-13T21:03:15.817Z,952.81
2019-05-13T21:05:42.146Z,952.78
2019-05-13T21:08:08.477Z,952.66
2019-05-13T21:10:34.783Z,952.88
2019-05-13T21:13:01.760Z,952.71
2019-05-13T21:15:27.427Z,952.57
2019-05-13T21:17:53.749Z,952.52
2019-05-13T21:20:25.031Z,952.31
2019-05-13T21:22:46.368Z,952.24
2019-05-13T21:25:12.726Z,952.21
2019-05-13T21:27:39.029Z,952.00
2019-05-13T21:30:05.361Z,951.97
2019-05-13T21:32:31.691Z,952.24
2019-05-13T21:34:58.001Z,952.23
2019-05-13T21:37:24.320Z,952.18
2019-05-13T21:39:51.674Z,952.07
2019-05-13T21:42:21.616Z,952.15
2019-05-13T21:44:46.181Z,952.16
2019-05-13T21:47:12.515Z,952.31
2019-05-13T21:49:38.839Z,952.37
2019-05-13T21:52:05.153Z,952.38
2019-05-13T21:54:33.485Z,952.43
2019-05-13T21:56:57.798Z,952.26
2019-05-13T21:59:24.128Z,952.22
2019-05-13T22:01:52.244Z,952.24
2019-05-13T22:04:16.775Z,952.27
2019-05-13T22:06:43.097Z,952.30
2019-05-13T22:09:11.508Z,952.35
2019-05-13T22:11:35.714Z,952.34
2019-05-13T22:14:02.046Z,952.36
2019-05-13T22:16:28.355Z,952.31
2019-05-13T22:18:54.686Z,952.33
2019-05-13T22:21:21.017Z,952.22
2019-05-13T22:23:47.320Z,952.24
2019-05-13T22:26:13.650Z,952.20
2019-05-13T22:28:41.745Z,952.24
2019-05-13T22:31:06.286Z,952.32
2019-05-13T22:33:32.664Z,952.24
2019-05-13T22:36:01.361Z,952.28
2019-05-13T22:38:25.231Z,952.18
2019-05-13T22:40:52.044Z,952.29
2019-05-13T22:43:17.876Z,952.34
2019-05-13T22:45:44.183Z,952.32
2019-05-13T22:48:14.535Z,952.41
2019-05-13T22:50:36.818Z,952.48
2019-05-13T22:53:03.153Z,952.54
2019-05-13T22:55:31.266Z,952.60
2019-05-13T22:57:55.787Z,952.53
2019-05-13T23:00:22.440Z,952.47
2019-05-13T23:02:48.428Z,952.57
2019-05-13T23:05:14.761Z,952.49
2019-05-13T23:07:41.075Z,952.56
2019-05-13T23:10:07.589Z,952.56
2019-05-13T23:12:34.023Z,952.38
2019-05-13T23:15:01.339Z,952.62
2019-05-13T23:17:26.688Z,952.66
2019-05-13T23:19:53.004Z,952.76
2019-05-13T23:22:19.336Z,952.76
2019-05-13T23:24:45.640Z,952.77
2019-05-13T23:27:11.971Z,952.68
2019-05-13T23:29:38.302Z,952.65
2019-05-13T23:32:04.615Z,952.44
2019-05-13T23:34:31.825Z,952.51
2019-05-13T23:36:57.273Z,952.35
2019-05-13T23:39:23.578Z,952.46
2019-05-13T23:41:51.989Z,952.48
2019-05-13T23:44:24.913Z,952.34
2019-05-13T23:46:42.545Z,952.39
2019-05-13T23:49:08.843Z,952.48
2019-05-13T23:51:35.279Z,952.55
2019-05-13T23:54:01.681Z,952.48
2019-05-13T23:56:27.940Z,952.39
2019-05-13T23:58:54.264Z,952.27
